Decoded Metar for USCC (CHELYABINSK in RUSSIA) (IATA:CEK) | Meteo·Mobile Aviation Weather
aviador You're here:

USCC Decoded Metar

CHELYABINSK in RUSSIA
Report Time2018-10-22 22:00:00
UTC Time2018-10-22 22:29:11
Flight Rules vfr VFR
Wind230° at 8 kt
W.Decomp.*RWY 27: 4.8 kt HW 6.4 kt LCW
W.Rank230° ranks 18
Current wind is below 230° avg. (9.5)
Visibility9999 m
Phenomena:N/A
Clouds:N/A
Expected CloudBase > 1,600 ft AGL from Temp-Dew spread
CeilingNone
Temp01°C (ISA -12)
Dew Point-3°C (75% RH)
AAT-4.3°C
QNH1019 hPa
Density Alt-886 ft
Elevation768 ft
Report Wrong Elevation
Raw Report
USCC 222200Z 23004MPS CAVOK 01/M03 Q1019 R27/000060 NOSIG RMK
QFE744=

Extra information for USCC:More info

Metar Taf Metar & Taf Last 4 Metars F.Rules Stats Wind Profile Meteogram Temp Stats Airport Information Weather charts Add Link Nearby VenuesMetar ALERT Operation Metar Decoded Social comments